Avon, Iowa
Current Conditions -  °F | °C
As of 9:54 AM on Sunday 25 Jan 2015 (Local Time) from KDSM Reporting Station
Light Snow Light Snow  
Wind Chill: 24°   Ceiling: 500
Heat Index: 34°   Visibility: 0.75mi
Dew Point: 31°   Wind: 15mph
Humidity: 89%   Direction: 40°NE
Pressure: 29.81"   Gusts: NA
Location:  41.4707°N, 93.4797°W
Report Text: KDSM 251554Z 04013KT 3/4SM R31/4500VP6000FT -SN BR BKN005 OVC010 01/M01 A2981 RMK AO2 TWR VIS 1 SLP100 P0004 T00111006
Loading
Personal Weather Stations






























Interactive Weather Map New forecast layout! Learn more

10-Day Weather Forecast

Advertisements
Track Severe Weather on mobile